Italic G — IBYH — position and weather

sailwx.info

Track history (hours):
 
Tides and Currents Weather Stations Pressure Air Temp Water Temp Dewpoint Dewpoint Depression Visibility Wind Speed Wind Dir Waves Ship Positions

Italic G

Last reported at 2017-Mar-10 07:28 UTC. Time now 2017-Mar-23 10:16 UTC.
Position N 49°28' W 005°58'.
Warning: this ship's position is 13 days out of date.

Length 229 m; draft 7.5 m.

Type: Cargo ship. MMSI: 247282300.

Date/timePositionNaut miles runAvg speedWind from/ knotsBaromVisibWave heightAir tempDewpointWater temp
2017-Mar-10 07:28N 49°28' W 005°58'3010.0
2017-Mar-10 04:28N 49°36' W 005°14'10 9.1
2017-Mar-10 03:25N 49°39' W 004°60'40 9.9
2017-Mar-09 23:20N 49°49' W 003°59'911.4
2017-Mar-09 22:33N 49°51' W 003°46'1111.4
2017-Mar-09 21:34N 49°54' W 003°29'1310.8
2017-Mar-09 20:24N 49°57' W 003°10'810.0
2017-Mar-09 19:33N 49°60' W 002°57'9 9.1
2017-Mar-09 18:32N 50°02' W 002°44'27 8.6
2017-Mar-09 15:27N 50°09' W 002°04'910.3
2017-Mar-09 14:33N 50°11' W 001°50'1211.7
2017-Mar-09 13:33N 50°14' W 001°32'4412.8
2017-Mar-09 10:07N 50°26' W 000°26'611.3
2017-Mar-09 09:33N 50°27' W 000°16'1010.4
2017-Mar-09 08:33N 50°30' W 000°00'10 9.5
2017-Mar-09 07:30N 50°33' E 000°15'10 8.6
2017-Mar-09 06:19N 50°35' E 000°31'7 9.1
2017-Mar-09 05:31N 50°40' E 000°40'1010.2
2017-Mar-09 04:33N 50°46' E 000°52'1110.9
2017-Mar-09 03:33N 50°53' E 001°05'1211.8
2017-Mar-09 02:34N 51°00' E 001°20'1111.1
2017-Mar-09 01:34N 51°07' E 001°33'1010.1
2017-Mar-09 00:33N 51°14' E 001°45'10 9.8
2017-Mar-08 23:34N 51°22' E 001°53'9 9.5
2017-Mar-08 22:33N 51°30' E 002°02'10 9.7
2017-Mar-08 21:34N 51°37' E 002°13'1210.4
2017-Mar-08 20:26N 51°46' E 002°26'3311.2
2017-Mar-08 17:31N 52°02' E 003°12'1212.4
2017-Mar-08 16:33N 52°03' E 003°31'1211.7
2017-Mar-08 15:33N 52°03' E 003°50'9 9.5
2017-Mar-08 14:34N 51°59' E 004°04'3 3.0
2017-Mar-08 13:33N 51°56' E 004°03'0 0.0
2017-Mar-08 12:33N 51°56' E 004°03'0 0.0
2017-Mar-08 11:33N 51°56' E 004°03'0 0.0
2017-Mar-08 10:33N 51°56' E 004°03'0 0.0
2017-Mar-08 09:33N 51°56' E 004°03'0 0.0
2017-Mar-08 08:33N 51°56' E 004°03'0 0.0
2017-Mar-08 07:33N 51°56' E 004°03'0 0.0
2017-Mar-08 06:33N 51°56' E 004°03'0 0.0
2017-Mar-08 05:33N 51°56' E 004°03'0 0.0
2017-Mar-08 04:30N 51°56' E 004°03'0 0.0
2017-Mar-08 03:33N 51°56' E 004°03'0 0.0
2017-Mar-08 02:33N 51°56' E 004°03'0 0.0
2017-Mar-08 01:33N 51°56' E 004°03'0 0.0
2017-Mar-08 00:31N 51°56' E 004°03'0 0.0
2017-Mar-07 23:31N 51°56' E 004°03'0 0.0
2017-Mar-07 22:31N 51°56' E 004°03'0 0.0
2017-Mar-07 21:31N 51°56' E 004°03'0 0.0
2017-Mar-07 20:31N 51°56' E 004°03'0 0.0
2017-Mar-07 19:31N 51°56' E 004°03'0 0.0
2017-Mar-07 18:31N 51°56' E 004°03'0 0.0
2017-Mar-07 17:31N 51°56' E 004°03'0 0.0
2017-Mar-07 16:31N 51°56' E 004°03'0 0.0
2017-Mar-07 15:31N 51°56' E 004°03'0 0.0
2017-Mar-07 14:28N 51°56' E 004°03'0 0.0
2017-Mar-07 13:31N 51°56' E 004°03'0 0.0
2017-Mar-07 12:31N 51°56' E 004°03'0 0.0
2017-Mar-07 11:31N 51°56' E 004°03'0 0.0
2017-Mar-07 10:31N 51°56' E 004°03'0 0.0
2017-Mar-07 09:31N 51°56' E 004°03'0 0.0
2017-Mar-07 08:31N 51°56' E 004°03'0 0.0
2017-Mar-07 07:31N 51°56' E 004°03'0 0.0
2017-Mar-07 06:31N 51°56' E 004°03'0 0.0
2017-Mar-07 05:31N 51°56' E 004°03'0 0.0
2017-Mar-07 04:32N 51°56' E 004°03'0 0.0
2017-Mar-07 03:31N 51°56' E 004°03'0 0.0
2017-Mar-07 02:31N 51°56' E 004°03'0 0.0
2017-Mar-07 01:31N 51°56' E 004°03'0 0.0
2017-Mar-07 00:31N 51°56' E 004°03'0 0.0
2017-Mar-06 23:31N 51°56' E 004°03'0 0.0
2017-Mar-06 22:31N 51°56' E 004°03'0 0.0
2017-Mar-06 21:28N 51°56' E 004°03'0 0.0
2017-Mar-06 20:33N 51°56' E 004°03'0 0.0
2017-Mar-06 19:33N 51°56' E 004°03'0 0.0
2017-Mar-06 18:33N 51°56' E 004°03'0 0.0
2017-Mar-06 17:33N 51°56' E 004°03'0 0.0
2017-Mar-06 16:33N 51°56' E 004°03'0 0.0
2017-Mar-06 15:33N 51°56' E 004°03'0 0.0
2017-Mar-06 14:33N 51°56' E 004°03'0 0.0
2017-Mar-06 13:33N 51°56' E 004°03'0 0.0
2017-Mar-06 12:33N 51°56' E 004°03'0 0.5
2017-Mar-06 11:33N 51°56' E 004°04'4 4.5
2017-Mar-06 10:33N 52°00' E 003°60'10 9.6
2017-Mar-06 09:33N 52°01' E 003°44'9 8.4
2017-Mar-06 08:32N 51°57' E 003°32'3 0.3
2017-Mar-05 23:11N 51°55' E 003°30'4 4.8
2017-Mar-05 22:22N 51°55' E 003°24'910.7
2017-Mar-05 21:29N 51°53' E 003°09'4511.4
2017-Mar-05 17:32N 51°26' E 002°11'1111.7
2017-Mar-05 16:33N 51°15' E 002°05'1313.0
2017-Mar-05 15:33N 51°07' E 001°49'1313.4
2017-Mar-05 14:33N 50°58' E 001°34'69 9.8
2017-Mar-05 07:33N 50°19' E 000°04'12 9.3
2017-Mar-05 06:17N 50°16' W 000°14'32 9.9
2017-Mar-05 03:04N 50°08' W 001°02'611.9
2017-Mar-05 02:33N 50°07' W 001°11'1312.7
2017-Mar-05 01:33N 50°03' W 001°30'1413.7
2017-Mar-05 00:33N 49°60' W 001°51'4112.9
2017-Mar-04 21:21N 49°50' W 002°53'1011.5
2017-Mar-04 20:27N 49°49' W 003°09'1011.0
2017-Mar-04 19:34N 49°46' W 003°24'1310.5
2017-Mar-04 18:18N 49°44' W 003°44'  
Track history (hours):
 
Tides and Currents Weather Stations Pressure Air Temp Water Temp Dewpoint Dewpoint Depression Visibility Wind Speed Wind Dir Waves Ship Positions

Italic G

Last reported at 2017-Mar-10 07:28 UTC. Time now 2017-Mar-23 10:16 UTC.
Position N 49°28' W 005°58'.
Warning: this ship's position is 13 days out of date.

Length 229 m; draft 7.5 m.

Type: Cargo ship. MMSI: 247282300.

Date/timePositionNaut miles runAvg speedWind from/ knotsBaromVisibWave heightAir tempDewpointWater temp
2017-Mar-10 07:28N 49°28' W 005°58'3010.0
2017-Mar-10 04:28N 49°36' W 005°14'10 9.1
2017-Mar-10 03:25N 49°39' W 004°60'40 9.9
2017-Mar-09 23:20N 49°49' W 003°59'911.4
2017-Mar-09 22:33N 49°51' W 003°46'1111.4
2017-Mar-09 21:34N 49°54' W 003°29'1310.8
2017-Mar-09 20:24N 49°57' W 003°10'810.0
2017-Mar-09 19:33N 49°60' W 002°57'9 9.1
2017-Mar-09 18:32N 50°02' W 002°44'27 8.6
2017-Mar-09 15:27N 50°09' W 002°04'910.3
2017-Mar-09 14:33N 50°11' W 001°50'1211.7
2017-Mar-09 13:33N 50°14' W 001°32'4412.8
2017-Mar-09 10:07N 50°26' W 000°26'611.3
2017-Mar-09 09:33N 50°27' W 000°16'1010.4
2017-Mar-09 08:33N 50°30' W 000°00'10 9.5
2017-Mar-09 07:30N 50°33' E 000°15'10 8.6
2017-Mar-09 06:19N 50°35' E 000°31'7 9.1
2017-Mar-09 05:31N 50°40' E 000°40'1010.2
2017-Mar-09 04:33N 50°46' E 000°52'1110.9
2017-Mar-09 03:33N 50°53' E 001°05'1211.8
2017-Mar-09 02:34N 51°00' E 001°20'1111.1
2017-Mar-09 01:34N 51°07' E 001°33'1010.1
2017-Mar-09 00:33N 51°14' E 001°45'10 9.8
2017-Mar-08 23:34N 51°22' E 001°53'9 9.5
2017-Mar-08 22:33N 51°30' E 002°02'10 9.7
2017-Mar-08 21:34N 51°37' E 002°13'1210.4
2017-Mar-08 20:26N 51°46' E 002°26'3311.2
2017-Mar-08 17:31N 52°02' E 003°12'1212.4
2017-Mar-08 16:33N 52°03' E 003°31'1211.7
2017-Mar-08 15:33N 52°03' E 003°50'9 9.5
2017-Mar-08 14:34N 51°59' E 004°04'3 3.0
2017-Mar-08 13:33N 51°56' E 004°03'0 0.0
2017-Mar-08 12:33N 51°56' E 004°03'0 0.0
2017-Mar-08 11:33N 51°56' E 004°03'0 0.0
2017-Mar-08 10:33N 51°56' E 004°03'0 0.0
2017-Mar-08 09:33N 51°56' E 004°03'0 0.0
2017-Mar-08 08:33N 51°56' E 004°03'0 0.0
2017-Mar-08 07:33N 51°56' E 004°03'0 0.0
2017-Mar-08 06:33N 51°56' E 004°03'0 0.0
2017-Mar-08 05:33N 51°56' E 004°03'0 0.0
2017-Mar-08 04:30N 51°56' E 004°03'0 0.0
2017-Mar-08 03:33N 51°56' E 004°03'0 0.0
2017-Mar-08 02:33N 51°56' E 004°03'0 0.0
2017-Mar-08 01:33N 51°56' E 004°03'0 0.0
2017-Mar-08 00:31N 51°56' E 004°03'0 0.0
2017-Mar-07 23:31N 51°56' E 004°03'0 0.0
2017-Mar-07 22:31N 51°56' E 004°03'0 0.0
2017-Mar-07 21:31N 51°56' E 004°03'0 0.0
2017-Mar-07 20:31N 51°56' E 004°03'0 0.0
2017-Mar-07 19:31N 51°56' E 004°03'0 0.0
2017-Mar-07 18:31N 51°56' E 004°03'0 0.0
2017-Mar-07 17:31N 51°56' E 004°03'0 0.0
2017-Mar-07 16:31N 51°56' E 004°03'0 0.0
2017-Mar-07 15:31N 51°56' E 004°03'0 0.0
2017-Mar-07 14:28N 51°56' E 004°03'0 0.0
2017-Mar-07 13:31N 51°56' E 004°03'0 0.0
2017-Mar-07 12:31N 51°56' E 004°03'0 0.0
2017-Mar-07 11:31N 51°56' E 004°03'0 0.0
2017-Mar-07 10:31N 51°56' E 004°03'0 0.0
2017-Mar-07 09:31N 51°56' E 004°03'0 0.0
2017-Mar-07 08:31N 51°56' E 004°03'0 0.0
2017-Mar-07 07:31N 51°56' E 004°03'0 0.0
2017-Mar-07 06:31N 51°56' E 004°03'0 0.0
2017-Mar-07 05:31N 51°56' E 004°03'0 0.0
2017-Mar-07 04:32N 51°56' E 004°03'0 0.0
2017-Mar-07 03:31N 51°56' E 004°03'0 0.0
2017-Mar-07 02:31N 51°56' E 004°03'0 0.0
2017-Mar-07 01:31N 51°56' E 004°03'0 0.0
2017-Mar-07 00:31N 51°56' E 004°03'0 0.0
2017-Mar-06 23:31N 51°56' E 004°03'0 0.0
2017-Mar-06 22:31N 51°56' E 004°03'0 0.0
2017-Mar-06 21:28N 51°56' E 004°03'0 0.0
2017-Mar-06 20:33N 51°56' E 004°03'0 0.0
2017-Mar-06 19:33N 51°56' E 004°03'0 0.0
2017-Mar-06 18:33N 51°56' E 004°03'0 0.0
2017-Mar-06 17:33N 51°56' E 004°03'0 0.0
2017-Mar-06 16:33N 51°56' E 004°03'0 0.0
2017-Mar-06 15:33N 51°56' E 004°03'0 0.0
2017-Mar-06 14:33N 51°56' E 004°03'0 0.0
2017-Mar-06 13:33N 51°56' E 004°03'0 0.0
2017-Mar-06 12:33N 51°56' E 004°03'0 0.5
2017-Mar-06 11:33N 51°56' E 004°04'4 4.5
2017-Mar-06 10:33N 52°00' E 003°60'10 9.6
2017-Mar-06 09:33N 52°01' E 003°44'9 8.4
2017-Mar-06 08:32N 51°57' E 003°32'3 0.3
2017-Mar-05 23:11N 51°55' E 003°30'4 4.8
2017-Mar-05 22:22N 51°55' E 003°24'910.7
2017-Mar-05 21:29N 51°53' E 003°09'4511.4
2017-Mar-05 17:32N 51°26' E 002°11'1111.7
2017-Mar-05 16:33N 51°15' E 002°05'1313.0
2017-Mar-05 15:33N 51°07' E 001°49'1313.4
2017-Mar-05 14:33N 50°58' E 001°34'69 9.8
2017-Mar-05 07:33N 50°19' E 000°04'12 9.3
2017-Mar-05 06:17N 50°16' W 000°14'32 9.9
2017-Mar-05 03:04N 50°08' W 001°02'611.9
2017-Mar-05 02:33N 50°07' W 001°11'1312.7
2017-Mar-05 01:33N 50°03' W 001°30'1413.7
2017-Mar-05 00:33N 49°60' W 001°51'4112.9
2017-Mar-04 21:21N 49°50' W 002°53'1011.5
2017-Mar-04 20:27N 49°49' W 003°09'1011.0
2017-Mar-04 19:34N 49°46' W 003°24'1310.5
2017-Mar-04 18:18N 49°44' W 003°44'  

Dump ship's entire track history